Time,TemperatureF,DewpointF,PressureIn,WindDirection,WindDirectionDegrees,WindSpeedMPH,WindSpeedGustMPH,Humidity,HourlyPrecipIn,Conditions,Clouds,dailyrainin,SolarRadiationWatts/m^2,SoftwareType,DateUTC
2013-02-06 00:00:00,14.2,11.5,29.97,WNW,298,3.0,4.0,89,0.00,,,0.00,0.0,meteohub,2013-02-06 05:00:00,
2013-02-06 00:05:00,14.2,11.5,29.98,NW,306,1.0,4.0,89,0.00,,,0.00,0.0,meteohub,2013-02-06 05:05:00,
2013-02-06 00:10:00,14.2,11.3,29.98,NW,313,3.0,4.0,88,0.00,,,0.00,0.0,meteohub,2013-02-06 05:10:00,
2013-02-06 00:15:00,14.2,11.3,29.99,WNW,296,2.0,4.0,88,0.00,,,0.00,0.0,meteohub,2013-02-06 05:15:00,
2013-02-06 00:20:00,14.0,11.1,29.99,WNW,292,3.0,4.0,88,0.00,,,0.00,0.0,meteohub,2013-02-06 05:20:00,
2013-02-06 00:25:00,13.8,10.8,29.99,WNW,302,1.0,4.0,87,0.00,,,0.00,0.0,meteohub,2013-02-06 05:25:00,
2013-02-06 00:30:00,13.6,10.6,29.99,WNW,298,2.0,4.0,87,0.00,,,0.00,0.0,meteohub,2013-02-06 05:30:00,
2013-02-06 00:35:00,13.5,10.4,29.99,WNW,300,3.0,4.0,87,0.00,,,0.00,0.0,meteohub,2013-02-06 05:35:00,
2013-02-06 00:40:00,13.5,10.4,29.99,NW,306,2.0,4.0,87,0.00,,,0.00,0.0,meteohub,2013-02-06 05:40:00,
2013-02-06 00:45:00,13.3,9.9,30.00,WNW,298,2.0,4.0,86,0.00,,,0.00,0.0,meteohub,2013-02-06 05:45:00,
2013-02-06 00:50:00,13.1,9.7,30.00,WNW,301,2.0,3.0,86,0.00,,,0.00,0.0,meteohub,2013-02-06 05:50:00,
2013-02-06 00:55:00,12.9,9.9,30.01,NW,308,3.0,3.0,87,0.00,,,0.00,0.0,meteohub,2013-02-06 05:55:00,
2013-02-06 01:00:00,12.7,9.7,30.01,NW,311,0.0,4.0,87,0.00,,,0.00,0.0,meteohub,2013-02-06 06:00:00,
2013-02-06 01:05:00,12.7,9.7,30.01,NW,311,1.0,4.0,87,0.00,,,0.00,0.0,meteohub,2013-02-06 06:05:00,
2013-02-06 01:11:00,12.7,9.3,30.01,WNW,293,2.0,4.0,86,0.00,,,0.00,0.0,meteohub,2013-02-06 06:11:00,
2013-02-06 01:16:00,12.7,9.3,30.01,NW,306,2.0,4.0,86,0.00,,,0.00,0.0,meteohub,2013-02-06 06:16:00,
2013-02-06 01:21:00,12.6,9.1,30.01,NW,314,3.0,4.0,86,0.00,,,0.00,0.0,meteohub,2013-02-06 06:21:00,
2013-02-06 01:26:00,12.6,9.1,30.02,NW,308,2.0,4.0,86,0.00,,,0.00,0.0,meteohub,2013-02-06 06:26:00,
2013-02-06 01:31:00,12.4,9.0,30.02,WNW,292,2.0,3.0,86,0.00,,,0.00,0.0,meteohub,2013-02-06 06:31:00,
2013-02-06 01:36:00,12.6,9.1,30.02,NW,311,5.0,5.0,86,0.00,,,0.00,0.0,meteohub,2013-02-06 06:36:00,
2013-02-06 01:41:00,12.6,9.1,30.02,WNW,302,1.0,5.0,86,0.00,,,0.00,0.0,meteohub,2013-02-06 06:41:00,
2013-02-06 01:46:00,12.4,9.0,30.03,NW,306,2.0,5.0,86,0.00,,,0.00,0.0,meteohub,2013-02-06 06:46:00,
2013-02-06 01:51:00,12.6,9.1,30.03,NW,313,2.0,5.0,86,0.00,,,0.00,0.0,meteohub,2013-02-06 06:51:00,
2013-02-06 01:56:00,12.6,9.1,30.03,NW,306,3.0,4.0,86,0.00,,,0.00,0.0,meteohub,2013-02-06 06:56:00,
2013-02-06 02:01:00,12.4,9.0,30.04,WNW,300,2.0,4.0,86,0.00,,,0.00,0.0,meteohub,2013-02-06 07:01:00,
2013-02-06 02:06:00,12.0,8.6,30.04,NW,304,1.0,4.0,86,0.00,,,0.00,0.0,meteohub,2013-02-06 07:06:00,
2013-02-06 02:11:00,11.8,8.4,30.04,NW,304,2.0,4.0,86,0.00,,,0.00,0.0,meteohub,2013-02-06 07:11:00,
2013-02-06 02:16:00,11.8,8.8,30.04,WNW,303,1.0,3.0,87,0.00,,,0.00,0.0,meteohub,2013-02-06 07:16:00,
2013-02-06 02:21:00,11.5,8.4,30.04,WNW,303,2.0,3.0,87,0.00,,,0.00,0.0,meteohub,2013-02-06 07:21:00,
2013-02-06 02:26:00,11.3,8.2,30.05,WNW,303,1.0,3.0,87,0.00,,,0.00,0.0,meteohub,2013-02-06 07:26:00,
2013-02-06 02:31:00,10.9,8.1,30.05,WNW,303,1.0,3.0,88,0.00,,,0.00,0.0,meteohub,2013-02-06 07:31:00,
2013-02-06 02:36:00,10.8,7.7,30.06,WNW,303,2.0,3.0,87,0.00,,,0.00,0.0,meteohub,2013-02-06 07:36:00,
2013-02-06 02:41:00,10.6,7.5,30.06,WNW,303,1.0,3.0,87,0.00,,,0.00,0.0,meteohub,2013-02-06 07:41:00,
2013-02-06 02:46:00,10.0,7.0,30.06,WNW,303,2.0,3.0,87,0.00,,,0.00,0.0,meteohub,2013-02-06 07:46:00,
2013-02-06 02:51:00,9.7,6.8,30.06,WNW,303,1.0,3.0,88,0.00,,,0.00,0.0,meteohub,2013-02-06 07:51:00,
2013-02-06 02:56:00,9.3,6.4,30.06,WNW,303,1.0,3.0,88,0.00,,,0.00,0.0,meteohub,2013-02-06 07:56:00,
2013-02-06 03:01:00,9.1,6.3,30.06,WNW,303,1.0,3.0,88,0.00,,,0.00,0.0,meteohub,2013-02-06 08:01:00,
2013-02-06 03:06:00,9.0,6.4,30.06,WNW,303,1.0,2.0,89,0.00,,,0.00,0.0,meteohub,2013-02-06 08:06:00,
2013-02-06 03:11:00,8.6,6.1,30.07,WNW,303,1.0,2.0,89,0.00,,,0.00,0.0,meteohub,2013-02-06 08:11:00,
2013-02-06 03:16:00,8.4,6.1,30.07,WNW,303,0.0,2.0,90,0.00,,,0.00,0.0,meteohub,2013-02-06 08:16:00,
2013-02-06 03:21:00,8.2,5.9,30.07,WNW,303,1.0,2.0,90,0.00,,,0.00,0.0,meteohub,2013-02-06 08:21:00,
2013-02-06 03:26:00,8.1,5.5,30.07,WNW,303,1.0,2.0,89,0.00,,,0.00,0.0,meteohub,2013-02-06 08:26:00,
2013-02-06 03:31:00,7.9,5.5,30.07,WNW,303,0.0,1.0,90,0.00,,,0.00,0.0,meteohub,2013-02-06 08:31:00,
2013-02-06 03:36:00,7.7,5.4,30.08,WNW,303,0.0,1.0,90,0.00,,,0.00,0.0,meteohub,2013-02-06 08:36:00,
2013-02-06 03:41:00,7.7,5.5,30.08,WNW,303,0.0,1.0,91,0.00,,,0.00,0.0,meteohub,2013-02-06 08:41:00,
2013-02-06 03:46:00,7.7,5.5,30.08,WNW,303,0.0,1.0,91,0.00,,,0.00,0.0,meteohub,2013-02-06 08:46:00,
2013-02-06 03:51:00,7.7,5.5,30.08,WNW,303,0.0,1.0,91,0.00,,,0.00,0.0,meteohub,2013-02-06 08:51:00,
2013-02-06 03:56:00,7.7,5.5,30.08,WNW,303,0.0,0.0,91,0.00,,,0.00,0.0,meteohub,2013-02-06 08:56:00,
2013-02-06 04:01:00,7.9,6.1,30.08,WNW,303,0.0,1.0,92,0.00,,,0.00,0.0,meteohub,2013-02-06 09:01:00,
2013-02-06 04:06:00,7.9,6.1,30.08,WNW,303,1.0,1.0,92,0.00,,,0.00,0.0,meteohub,2013-02-06 09:06:00,
2013-02-06 04:11:00,7.7,5.5,30.08,WNW,303,0.0,1.0,91,0.00,,,0.00,0.0,meteohub,2013-02-06 09:11:00,
2013-02-06 04:16:00,7.5,5.4,30.08,WNW,303,0.0,1.0,91,0.00,,,0.00,0.0,meteohub,2013-02-06 09:16:00,
2013-02-06 04:22:00,7.2,4.8,30.08,WNW,303,1.0,1.0,90,0.00,,,0.00,0.0,meteohub,2013-02-06 09:22:00,
2013-02-06 04:27:00,7.0,4.6,30.09,WNW,303,1.0,1.0,90,0.00,,,0.00,0.0,meteohub,2013-02-06 09:27:00,
2013-02-06 04:32:00,6.4,4.1,30.09,WNW,303,1.0,1.0,90,0.00,,,0.00,0.0,meteohub,2013-02-06 09:32:00,
2013-02-06 04:37:00,6.3,3.9,30.10,WNW,303,1.0,2.0,90,0.00,,,0.00,0.0,meteohub,2013-02-06 09:37:00,
2013-02-06 04:42:00,6.1,3.7,30.10,WNW,303,1.0,2.0,90,0.00,,,0.00,0.0,meteohub,2013-02-06 09:42:00,
2013-02-06 04:47:00,6.1,3.7,30.10,WNW,303,1.0,2.0,90,0.00,,,0.00,0.0,meteohub,2013-02-06 09:47:00,
2013-02-06 04:52:00,6.1,4.1,30.10,WNW,303,0.0,2.0,91,0.00,,,0.00,0.0,meteohub,2013-02-06 09:52:00,
2013-02-06 04:57:00,6.1,4.1,30.10,WNW,303,0.0,2.0,91,0.00,,,0.00,0.0,meteohub,2013-02-06 09:57:00,
2013-02-06 05:02:00,5.7,3.4,30.11,WNW,303,1.0,2.0,90,0.00,,,0.00,0.0,meteohub,2013-02-06 10:02:00,
2013-02-06 05:07:00,5.4,3.0,30.11,WNW,303,1.0,2.0,90,0.00,,,0.00,0.0,meteohub,2013-02-06 10:07:00,
2013-02-06 05:12:00,5.4,3.0,30.12,WNW,303,1.0,2.0,90,0.00,,,0.00,0.0,meteohub,2013-02-06 10:12:00,
2013-02-06 05:17:00,4.8,2.3,30.12,WNW,303,0.0,2.0,89,0.00,,,0.00,0.0,meteohub,2013-02-06 10:17:00,
2013-02-06 05:22:00,4.6,2.1,30.12,WNW,303,0.0,2.0,89,0.00,,,0.00,0.0,meteohub,2013-02-06 10:22:00,
2013-02-06 05:27:00,4.6,2.3,30.12,WNW,303,1.0,2.0,90,0.00,,,0.00,0.0,meteohub,2013-02-06 10:27:00,
2013-02-06 05:32:00,4.5,1.9,30.12,WNW,303,1.0,1.0,89,0.00,,,0.00,0.0,meteohub,2013-02-06 10:32:00,
2013-02-06 05:37:00,4.1,1.6,30.12,WNW,303,1.0,2.0,89,0.00,,,0.00,0.0,meteohub,2013-02-06 10:37:00,
2013-02-06 05:42:00,3.9,1.6,30.12,WNW,303,0.0,2.0,90,0.00,,,0.00,0.0,meteohub,2013-02-06 10:42:00,
2013-02-06 05:47:00,3.7,1.4,30.12,WNW,303,1.0,2.0,90,0.00,,,0.00,0.0,meteohub,2013-02-06 10:47:00,
2013-02-06 05:52:00,3.6,1.0,30.12,WNW,300,1.0,1.0,89,0.00,,,0.00,0.0,meteohub,2013-02-06 10:52:00,
2013-02-06 05:57:00,3.4,0.9,30.12,WNW,288,1.0,1.0,89,0.00,,,0.00,0.0,meteohub,2013-02-06 10:57:00,
2013-02-06 06:02:00,3.6,1.6,30.13,West,273,0.0,1.0,91,0.00,,,0.00,0.0,meteohub,2013-02-06 11:02:00,
2013-02-06 06:07:00,3.7,1.8,30.13,West,273,0.0,1.0,91,0.00,,,0.00,0.0,meteohub,2013-02-06 11:07:00,
2013-02-06 06:12:00,3.9,1.9,30.14,West,273,0.0,1.0,91,0.00,,,0.00,0.0,meteohub,2013-02-06 11:12:00,
2013-02-06 06:17:00,4.1,2.1,30.14,West,273,1.0,1.0,91,0.00,,,0.00,0.0,meteohub,2013-02-06 11:17:00,
2013-02-06 06:22:00,4.1,2.1,30.14,West,273,0.0,1.0,91,0.00,,,0.00,0.0,meteohub,2013-02-06 11:22:00,
2013-02-06 06:27:00,4.1,2.1,30.14,West,273,0.0,1.0,91,0.00,,,0.00,0.0,meteohub,2013-02-06 11:27:00,
2013-02-06 06:32:00,4.3,2.3,30.14,West,273,0.0,1.0,91,0.00,,,0.00,0.0,meteohub,2013-02-06 11:32:00,
2013-02-06 06:37:00,4.5,2.7,30.14,West,273,1.0,0.0,92,0.00,,,0.00,0.0,meteohub,2013-02-06 11:37:00,
2013-02-06 06:42:00,4.5,2.5,30.14,West,273,1.0,1.0,91,0.00,,,0.00,0.0,meteohub,2013-02-06 11:42:00,
2013-02-06 06:47:00,4.6,2.8,30.15,West,269,0.0,1.0,92,0.00,,,0.00,0.0,meteohub,2013-02-06 11:47:00,
2013-02-06 06:52:00,4.8,2.8,30.15,West,264,1.0,1.0,91,0.00,,,0.00,0.0,meteohub,2013-02-06 11:52:00,
2013-02-06 06:57:00,5.4,3.6,30.15,West,263,1.0,2.0,92,0.00,,,0.00,0.0,meteohub,2013-02-06 11:57:00,
2013-02-06 07:02:00,6.1,4.5,30.16,WSW,244,1.0,2.0,93,0.00,,,0.00,0.0,meteohub,2013-02-06 12:02:00,
2013-02-06 07:07:00,6.8,5.2,30.16,SW,228,0.0,2.0,93,0.00,,,0.00,0.0,meteohub,2013-02-06 12:07:00,
2013-02-06 07:12:00,6.8,4.8,30.16,SW,228,0.0,2.0,91,0.00,,,0.00,0.0,meteohub,2013-02-06 12:12:00,
2013-02-06 07:17:00,6.6,4.3,30.17,SW,228,1.0,2.0,90,0.00,,,0.00,0.0,meteohub,2013-02-06 12:17:00,
2013-02-06 07:23:00,6.6,4.3,30.17,SW,228,0.0,2.0,90,0.00,,,0.00,0.0,meteohub,2013-02-06 12:23:00,
2013-02-06 07:28:00,6.8,4.8,30.17,SW,228,0.0,1.0,91,0.00,,,0.00,0.0,meteohub,2013-02-06 12:28:00,
2013-02-06 07:33:00,7.0,5.0,30.17,SW,228,0.0,1.0,91,0.00,,,0.00,0.0,meteohub,2013-02-06 12:33:00,
2013-02-06 07:38:00,7.0,5.0,30.17,SW,228,0.0,1.0,91,0.00,,,0.00,0.0,meteohub,2013-02-06 12:38:00,
2013-02-06 07:43:00,7.2,5.2,30.18,SW,228,0.0,1.0,91,0.00,,,0.00,0.0,meteohub,2013-02-06 12:43:00,
2013-02-06 07:48:00,7.2,5.2,30.18,SW,228,0.0,1.0,91,0.00,,,0.00,0.0,meteohub,2013-02-06 12:48:00,
2013-02-06 07:53:00,7.3,5.2,30.18,SW,228,0.0,1.0,91,0.00,,,0.00,0.0,meteohub,2013-02-06 12:53:00,
2013-02-06 07:58:00,7.2,4.8,30.18,SW,228,1.0,0.0,90,0.00,,,0.00,5.0,meteohub,2013-02-06 12:58:00,
2013-02-06 08:03:00,6.6,4.1,30.19,SW,228,0.0,1.0,89,0.00,,,0.00,9.0,meteohub,2013-02-06 13:03:00,
2013-02-06 08:08:00,6.4,3.9,30.19,SW,228,0.0,1.0,89,0.00,,,0.00,11.0,meteohub,2013-02-06 13:08:00,
2013-02-06 08:13:00,6.3,3.7,30.19,SW,228,0.0,1.0,89,0.00,,,0.00,16.0,meteohub,2013-02-06 13:13:00,
2013-02-06 08:18:00,6.3,3.9,30.19,SW,228,0.0,1.0,90,0.00,,,0.00,25.0,meteohub,2013-02-06 13:18:00,
2013-02-06 08:23:00,6.3,3.9,30.19,SW,228,0.0,1.0,90,0.00,,,0.00,35.0,meteohub,2013-02-06 13:23:00,
2013-02-06 08:28:00,6.3,3.9,30.19,SW,228,0.0,1.0,90,0.00,,,0.00,42.0,meteohub,2013-02-06 13:28:00,
2013-02-06 08:33:00,6.4,4.1,30.19,SW,228,0.0,1.0,90,0.00,,,0.00,40.0,meteohub,2013-02-06 13:33:00,
2013-02-06 08:38:00,6.3,3.7,30.19,SW,228,0.0,1.0,89,0.00,,,0.00,56.0,meteohub,2013-02-06 13:38:00,
2013-02-06 08:43:00,6.4,3.9,30.20,SW,228,0.0,2.0,89,0.00,,,0.00,118.0,meteohub,2013-02-06 13:43:00,
2013-02-06 08:48:00,7.0,5.0,30.20,SW,228,0.0,2.0,91,0.00,,,0.00,114.0,meteohub,2013-02-06 13:48:00,
2013-02-06 08:53:00,8.1,6.3,30.20,SW,228,1.0,2.0,92,0.00,,,0.00,113.0,meteohub,2013-02-06 13:53:00,
2013-02-06 08:58:00,8.2,5.9,30.20,South,186,1.0,1.0,90,0.00,,,0.00,109.0,meteohub,2013-02-06 13:58:00,
2013-02-06 09:03:00,8.4,6.1,30.20,South,186,0.0,2.0,90,0.00,,,0.00,56.0,meteohub,2013-02-06 14:03:00,
2013-02-06 09:08:00,8.6,6.3,30.20,South,186,0.0,2.0,90,0.00,,,0.00,74.0,meteohub,2013-02-06 14:08:00,
2013-02-06 09:13:00,8.8,6.4,30.20,South,186,0.0,2.0,90,0.00,,,0.00,137.0,meteohub,2013-02-06 14:13:00,
2013-02-06 09:18:00,8.8,6.4,30.20,South,178,2.0,2.0,90,0.00,,,0.00,116.0,meteohub,2013-02-06 14:18:00,
2013-02-06 09:23:00,8.8,6.4,30.21,South,178,1.0,2.0,90,0.00,,,0.00,111.0,meteohub,2013-02-06 14:23:00,
2013-02-06 09:28:00,9.1,7.0,30.21,SSW,211,5.0,5.0,91,0.00,,,0.00,137.0,meteohub,2013-02-06 14:28:00,
2013-02-06 09:33:00,8.8,6.4,30.20,South,191,1.0,4.0,90,0.00,,,0.00,251.0,meteohub,2013-02-06 14:33:00,
2013-02-06 09:38:00,8.2,5.7,30.21,SW,225,3.0,5.0,89,0.00,,,0.00,272.0,meteohub,2013-02-06 14:38:00,
2013-02-06 09:43:00,7.9,5.4,30.21,SW,225,3.0,5.0,89,0.00,,,0.00,281.0,meteohub,2013-02-06 14:43:00,
2013-02-06 09:48:00,7.2,4.3,30.21,WSW,239,4.0,4.0,88,0.00,,,0.00,318.0,meteohub,2013-02-06 14:48:00,
2013-02-06 09:53:00,7.3,4.5,30.22,SW,231,4.0,5.0,88,0.00,,,0.00,338.0,meteohub,2013-02-06 14:53:00,
2013-02-06 09:58:00,8.1,5.2,30.22,SW,229,3.0,6.0,88,0.00,,,0.00,346.0,meteohub,2013-02-06 14:58:00,
2013-02-06 10:03:00,8.6,6.1,30.22,SSW,212,5.0,6.0,89,0.00,,,0.00,399.0,meteohub,2013-02-06 15:03:00,
2013-02-06 10:08:00,9.1,6.3,30.22,SSW,198,2.0,6.0,88,0.00,,,0.00,388.0,meteohub,2013-02-06 15:08:00,
2013-02-06 10:13:00,9.9,7.0,30.22,SSW,213,0.0,6.0,88,0.00,,,0.00,179.0,meteohub,2013-02-06 15:13:00,
2013-02-06 10:18:00,10.6,7.7,30.22,SW,229,3.0,5.0,88,0.00,,,0.00,229.0,meteohub,2013-02-06 15:18:00,
2013-02-06 10:23:00,11.1,8.2,30.22,SSW,206,3.0,5.0,88,0.00,,,0.00,446.0,meteohub,2013-02-06 15:23:00,
2013-02-06 10:28:00,12.4,9.3,30.21,SW,220,1.0,5.0,87,0.00,,,0.00,262.0,meteohub,2013-02-06 15:28:00,
2013-02-06 10:33:00,13.3,10.2,30.21,South,181,1.0,5.0,87,0.00,,,0.00,269.0,meteohub,2013-02-06 15:33:00,
2013-02-06 10:38:00,13.6,10.2,30.22,SSW,213,0.0,4.0,86,0.00,,,0.00,225.0,meteohub,2013-02-06 15:38:00,
2013-02-06 10:44:00,14.2,10.6,30.22,South,179,2.0,3.0,85,0.00,,,0.00,404.0,meteohub,2013-02-06 15:44:00,
2013-02-06 10:49:00,15.3,11.5,30.22,SSW,197,1.0,3.0,85,0.00,,,0.00,450.0,meteohub,2013-02-06 15:49:00,
2013-02-06 10:54:00,16.2,11.8,30.22,SSE,165,1.0,4.0,83,0.00,,,0.00,464.0,meteohub,2013-02-06 15:54:00,
2013-02-06 10:59:00,17.2,13.3,30.22,SE,134,0.0,4.0,84,0.00,,,0.00,512.0,meteohub,2013-02-06 15:59:00,
2013-02-06 11:04:00,17.8,12.9,30.22,SSE,158,3.0,4.0,81,0.00,,,0.00,529.0,meteohub,2013-02-06 16:04:00,
2013-02-06 11:09:00,18.0,12.9,30.22,SE,144,3.0,4.0,80,0.00,,,0.00,534.0,meteohub,2013-02-06 16:09:00,
2013-02-06 11:14:00,18.0,13.1,30.22,SSE,163,2.0,5.0,81,0.00,,,0.00,541.0,meteohub,2013-02-06 16:14:00,
2013-02-06 11:19:00,18.9,13.5,30.22,South,184,2.0,5.0,79,0.00,,,0.00,554.0,meteohub,2013-02-06 16:19:00,
2013-02-06 11:24:00,19.0,13.3,30.23,SSE,164,3.0,5.0,78,0.00,,,0.00,577.0,meteohub,2013-02-06 16:24:00,
2013-02-06 11:29:00,18.5,13.1,30.23,South,186,3.0,4.0,79,0.00,,,0.00,381.0,meteohub,2013-02-06 16:29:00,
2013-02-06 11:34:00,18.7,13.5,30.23,WSW,237,3.0,5.0,80,0.00,,,0.00,362.0,meteohub,2013-02-06 16:34:00,
2013-02-06 11:39:00,18.9,13.1,30.24,SW,233,2.0,5.0,78,0.00,,,0.00,482.0,meteohub,2013-02-06 16:39:00,
2013-02-06 11:44:00,18.7,12.9,30.24,SSW,198,2.0,5.0,78,0.00,,,0.00,452.0,meteohub,2013-02-06 16:44:00,
2013-02-06 11:49:00,18.7,12.9,30.24,SSW,196,3.0,5.0,78,0.00,,,0.00,490.0,meteohub,2013-02-06 16:49:00,
2013-02-06 11:54:00,19.9,13.8,30.24,South,175,4.0,6.0,77,0.00,,,0.00,520.0,meteohub,2013-02-06 16:54:00,
2013-02-06 11:59:00,19.6,13.8,30.24,SSW,194,3.0,6.0,78,0.00,,,0.00,410.0,meteohub,2013-02-06 16:59:00,
2013-02-06 12:04:00,19.2,12.9,30.24,SSW,211,6.0,6.0,76,0.00,,,0.00,506.0,meteohub,2013-02-06 17:04:00,
2013-02-06 12:09:00,19.6,13.8,30.24,SSW,211,1.0,6.0,78,0.00,,,0.00,434.0,meteohub,2013-02-06 17:09:00,
2013-02-06 12:14:00,19.9,13.8,30.24,SW,227,5.0,6.0,77,0.00,,,0.00,559.0,meteohub,2013-02-06 17:14:00,
2013-02-06 12:19:00,20.5,14.4,30.24,SSW,194,3.0,7.0,77,0.00,,,0.00,452.0,meteohub,2013-02-06 17:19:00,
2013-02-06 12:24:00,20.1,14.0,30.23,South,178,1.0,7.0,77,0.00,,,0.00,366.0,meteohub,2013-02-06 17:24:00,
2013-02-06 12:29:00,20.3,14.5,30.23,South,189,3.0,7.0,78,0.00,,,0.00,378.0,meteohub,2013-02-06 17:29:00,
2013-02-06 12:34:00,19.8,13.6,30.23,WSW,240,4.0,7.0,77,0.00,,,0.00,281.0,meteohub,2013-02-06 17:34:00,
2013-02-06 12:39:00,19.2,13.5,30.23,South,180,3.0,6.0,78,0.00,,,0.00,308.0,meteohub,2013-02-06 17:39:00,
2013-02-06 12:44:00,20.5,15.3,30.24,SSE,157,1.0,6.0,80,0.00,,,0.00,422.0,meteohub,2013-02-06 17:44:00,
2013-02-06 12:49:00,20.7,14.9,30.24,SSW,205,3.0,6.0,78,0.00,,,0.00,283.0,meteohub,2013-02-06 17:49:00,
2013-02-06 12:54:00,19.8,14.4,30.24,SSW,198,4.0,4.0,79,0.00,,,0.00,264.0,meteohub,2013-02-06 17:54:00,
2013-02-06 12:59:00,20.1,15.3,30.24,South,190,1.0,5.0,81,0.00,,,0.00,272.0,meteohub,2013-02-06 17:59:00,
2013-02-06 13:04:00,20.5,14.7,30.24,SW,219,2.0,5.0,78,0.00,,,0.00,227.0,meteohub,2013-02-06 18:04:00,
2013-02-06 13:09:00,20.5,15.8,30.23,South,187,4.0,5.0,82,0.00,,,0.00,211.0,meteohub,2013-02-06 18:09:00,
2013-02-06 13:14:00,19.9,14.7,30.23,South,169,3.0,4.0,80,0.00,,,0.00,255.0,meteohub,2013-02-06 18:14:00,
2013-02-06 13:19:00,20.7,16.3,30.23,SSW,197,1.0,6.0,83,0.00,,,0.00,267.0,meteohub,2013-02-06 18:19:00,
2013-02-06 13:24:00,21.0,15.6,30.23,South,173,3.0,6.0,79,0.00,,,0.00,281.0,meteohub,2013-02-06 18:24:00,
2013-02-06 13:29:00,21.2,16.0,30.23,SSW,202,3.0,6.0,80,0.00,,,0.00,236.0,meteohub,2013-02-06 18:29:00,
2013-02-06 13:34:00,22.1,16.9,30.23,South,184,2.0,5.0,80,0.00,,,0.00,613.0,meteohub,2013-02-06 18:34:00,
2013-02-06 13:39:00,21.7,15.6,30.23,SW,229,2.0,5.0,77,0.00,,,0.00,260.0,meteohub,2013-02-06 18:39:00,
2013-02-06 13:45:00,21.9,15.8,30.22,South,189,3.0,5.0,77,0.00,,,0.00,638.0,meteohub,2013-02-06 18:45:00,
2013-02-06 13:50:00,22.8,16.7,30.22,South,173,2.0,5.0,77,0.00,,,0.00,591.0,meteohub,2013-02-06 18:50:00,
2013-02-06 13:55:00,23.9,17.1,30.22,SW,222,5.0,5.0,75,0.00,,,0.00,547.0,meteohub,2013-02-06 18:55:00,
2013-02-06 14:00:00,22.6,16.0,30.22,SW,217,4.0,5.0,75,0.00,,,0.00,186.0,meteohub,2013-02-06 19:00:00,
2013-02-06 14:05:00,22.6,16.9,30.22,SSE,159,2.0,6.0,78,0.00,,,0.00,594.0,meteohub,2013-02-06 19:05:00,
2013-02-06 14:10:00,24.6,17.8,30.22,South,176,2.0,6.0,75,0.00,,,0.00,675.0,meteohub,2013-02-06 19:10:00,
2013-02-06 14:15:00,24.6,17.6,30.22,SW,223,4.0,5.0,74,0.00,,,0.00,728.0,meteohub,2013-02-06 19:15:00,
2013-02-06 14:20:00,23.4,16.7,30.22,SSW,198,2.0,6.0,75,0.00,,,0.00,323.0,meteohub,2013-02-06 19:20:00,
2013-02-06 14:25:00,23.2,16.7,30.22,SW,219,5.0,8.0,76,0.00,,,0.00,269.0,meteohub,2013-02-06 19:25:00,
2013-02-06 14:30:00,23.7,17.2,30.22,West,277,1.0,8.0,76,0.00,,,0.00,236.0,meteohub,2013-02-06 19:30:00,
2013-02-06 14:35:00,23.4,16.7,30.22,WNW,284,3.0,8.0,75,0.00,,,0.00,237.0,meteohub,2013-02-06 19:35:00,
2013-02-06 14:40:00,23.4,16.9,30.22,WNW,282,2.0,5.0,76,0.00,,,0.00,271.0,meteohub,2013-02-06 19:40:00,
2013-02-06 14:45:00,23.5,18.0,30.22,West,280,1.0,4.0,79,0.00,,,0.00,239.0,meteohub,2013-02-06 19:45:00,
2013-02-06 14:50:00,24.1,19.0,30.22,West,279,1.0,4.0,81,0.00,,,0.00,195.0,meteohub,2013-02-06 19:50:00,
2013-02-06 14:55:00,24.3,19.6,30.22,WNW,293,0.0,3.0,82,0.00,,,0.00,413.0,meteohub,2013-02-06 19:55:00,
2013-02-06 15:00:00,23.9,18.3,30.22,WNW,292,2.0,3.0,79,0.00,,,0.00,186.0,meteohub,2013-02-06 20:00:00,
2013-02-06 15:05:00,23.2,17.1,30.22,SSW,211,3.0,3.0,77,0.00,,,0.00,232.0,meteohub,2013-02-06 20:05:00,
2013-02-06 15:10:00,24.3,18.3,30.22,NNE,32,2.0,4.0,78,0.00,,,0.00,207.0,meteohub,2013-02-06 20:10:00,
2013-02-06 15:15:00,23.7,18.0,30.22,West,261,1.0,4.0,78,0.00,,,0.00,155.0,meteohub,2013-02-06 20:15:00,
2013-02-06 15:20:00,23.5,17.4,30.22,NW,307,2.0,4.0,77,0.00,,,0.00,127.0,meteohub,2013-02-06 20:20:00,
2013-02-06 15:25:00,23.5,17.1,30.22,SW,229,1.0,4.0,76,0.00,,,0.00,141.0,meteohub,2013-02-06 20:25:00,
2013-02-06 15:30:00,23.4,17.2,30.21,SE,127,0.0,4.0,77,0.00,,,0.00,197.0,meteohub,2013-02-06 20:30:00,
2013-02-06 15:35:00,23.2,17.6,30.21,NE,46,1.0,4.0,79,0.00,,,0.00,172.0,meteohub,2013-02-06 20:35:00,
2013-02-06 15:40:00,23.2,18.1,30.22,NE,34,1.0,4.0,81,0.00,,,0.00,181.0,meteohub,2013-02-06 20:40:00,
2013-02-06 15:45:00,23.7,18.0,30.22,NNE,30,2.0,4.0,78,0.00,,,0.00,397.0,meteohub,2013-02-06 20:45:00,
2013-02-06 15:50:00,23.5,17.8,30.22,East,84,2.0,3.0,78,0.00,,,0.00,111.0,meteohub,2013-02-06 20:50:00,
2013-02-06 15:55:00,23.2,17.6,30.22,East,90,1.0,5.0,79,0.00,,,0.00,95.0,meteohub,2013-02-06 20:55:00,
2013-02-06 16:00:00,23.2,18.0,30.22,East,82,2.0,5.0,80,0.00,,,0.00,118.0,meteohub,2013-02-06 21:00:00,
2013-02-06 16:05:00,22.8,17.2,30.22,ENE,74,2.0,5.0,79,0.00,,,0.00,141.0,meteohub,2013-02-06 21:05:00,
2013-02-06 16:10:00,22.8,17.6,30.22,ENE,73,1.0,3.0,80,0.00,,,0.00,125.0,meteohub,2013-02-06 21:10:00,
2013-02-06 16:16:00,22.8,17.6,30.22,ENE,74,2.0,3.0,80,0.00,,,0.00,107.0,meteohub,2013-02-06 21:16:00,
2013-02-06 16:21:00,22.8,17.6,30.23,ENE,76,1.0,3.0,80,0.00,,,0.00,128.0,meteohub,2013-02-06 21:21:00,
2013-02-06 16:26:00,23.0,17.8,30.23,ENE,78,0.0,2.0,80,0.00,,,0.00,91.0,meteohub,2013-02-06 21:26:00,
2013-02-06 16:31:00,23.2,17.6,30.23,ENE,73,2.0,2.0,79,0.00,,,0.00,181.0,meteohub,2013-02-06 21:31:00,
2013-02-06 16:36:00,23.4,17.8,30.23,ENE,73,0.0,2.0,79,0.00,,,0.00,144.0,meteohub,2013-02-06 21:36:00,
2013-02-06 16:41:00,23.5,18.3,30.23,ENE,67,0.0,2.0,80,0.00,,,0.00,120.0,meteohub,2013-02-06 21:41:00,
2013-02-06 16:46:00,23.5,18.0,30.23,NNE,29,0.0,3.0,79,0.00,,,0.00,141.0,meteohub,2013-02-06 21:46:00,
2013-02-06 16:51:00,23.5,18.3,30.24,NNE,28,2.0,3.0,80,0.00,,,0.00,118.0,meteohub,2013-02-06 21:51:00,
2013-02-06 16:56:00,23.5,18.3,30.23,NNE,28,1.0,3.0,80,0.00,,,0.00,98.0,meteohub,2013-02-06 21:56:00,
2013-02-06 17:01:00,23.7,18.5,30.23,NNE,26,1.0,2.0,80,0.00,,,0.00,83.0,meteohub,2013-02-06 22:01:00,
2013-02-06 17:06:00,23.5,18.3,30.23,NNE,26,1.0,2.0,80,0.00,,,0.00,62.0,meteohub,2013-02-06 22:06:00,
2013-02-06 17:11:00,23.5,18.5,30.23,NNE,26,2.0,2.0,81,0.00,,,0.00,53.0,meteohub,2013-02-06 22:11:00,
2013-02-06 17:16:00,23.4,18.1,30.23,NE,39,1.0,2.0,80,0.00,,,0.00,42.0,meteohub,2013-02-06 22:16:00,
2013-02-06 17:21:00,23.2,18.1,30.23,NE,38,1.0,2.0,81,0.00,,,0.00,35.0,meteohub,2013-02-06 22:21:00,
2013-02-06 17:26:00,23.0,18.3,30.23,NE,38,1.0,2.0,82,0.00,,,0.00,35.0,meteohub,2013-02-06 22:26:00,
2013-02-06 17:31:00,22.8,18.5,30.23,NNE,32,0.0,2.0,83,0.00,,,0.00,25.0,meteohub,2013-02-06 22:31:00,
2013-02-06 17:36:00,22.6,18.5,30.24,NNE,32,1.0,2.0,84,0.00,,,0.00,16.0,meteohub,2013-02-06 22:36:00,
2013-02-06 17:41:00,22.6,18.9,30.24,NNE,29,1.0,2.0,85,0.00,,,0.00,9.0,meteohub,2013-02-06 22:41:00,
2013-02-06 17:46:00,22.5,18.3,30.23,NNE,27,1.0,2.0,84,0.00,,,0.00,5.0,meteohub,2013-02-06 22:46:00,
2013-02-06 17:51:00,22.1,18.3,30.24,NNE,26,1.0,2.0,85,0.00,,,0.00,0.0,meteohub,2013-02-06 22:51:00,
2013-02-06 17:56:00,21.9,18.1,30.23,NNE,27,1.0,2.0,85,0.00,,,0.00,0.0,meteohub,2013-02-06 22:56:00,
2013-02-06 18:01:00,21.7,18.1,30.24,NNE,25,1.0,3.0,86,0.00,,,0.00,0.0,meteohub,2013-02-06 23:01:00,
2013-02-06 18:06:00,21.6,18.0,30.24,NNE,25,1.0,3.0,86,0.00,,,0.00,0.0,meteohub,2013-02-06 23:06:00,
2013-02-06 18:11:00,21.4,18.1,30.24,ENE,60,3.0,3.0,87,0.00,,,0.00,0.0,meteohub,2013-02-06 23:11:00,
2013-02-06 18:16:00,21.2,18.0,30.24,NNE,30,2.0,4.0,87,0.00,,,0.00,0.0,meteohub,2013-02-06 23:16:00,
2013-02-06 18:21:00,21.0,18.0,30.24,NE,34,1.0,4.0,88,0.00,,,0.00,0.0,meteohub,2013-02-06 23:21:00,
2013-02-06 18:27:00,21.0,17.8,30.24,NE,38,1.0,4.0,87,0.00,,,0.00,0.0,meteohub,2013-02-06 23:27:00,
2013-02-06 18:32:00,20.8,17.6,30.24,ENE,65,2.0,4.0,87,0.00,,,0.00,0.0,meteohub,2013-02-06 23:32:00,
2013-02-06 18:37:00,20.8,17.6,30.24,NE,52,1.0,4.0,87,0.00,,,0.00,0.0,meteohub,2013-02-06 23:37:00,
2013-02-06 18:42:00,20.8,17.6,30.24,NE,40,2.0,3.0,87,0.00,,,0.00,0.0,meteohub,2013-02-06 23:42:00,
2013-02-06 18:47:00,20.8,17.6,30.24,NE,44,2.0,3.0,87,0.00,,,0.00,0.0,meteohub,2013-02-06 23:47:00,
2013-02-06 18:52:00,20.8,17.8,30.24,ENE,59,3.0,3.0,88,0.00,,,0.00,0.0,meteohub,2013-02-06 23:52:00,
2013-02-06 18:57:00,20.8,17.8,30.24,ENE,76,3.0,4.0,88,0.00,,,0.00,0.0,meteohub,2013-02-06 23:57:00,
2013-02-06 19:02:00,20.8,17.8,30.24,ENE,66,1.0,4.0,88,0.00,,,0.00,0.0,meteohub,2013-02-07 00:02:00,
2013-02-06 19:07:00,20.7,17.6,30.24,NE,34,0.0,4.0,88,0.00,,,0.00,0.0,meteohub,2013-02-07 00:07:00,
2013-02-06 19:12:00,20.7,17.6,30.24,ENE,61,1.0,4.0,88,0.00,,,0.00,0.0,meteohub,2013-02-07 00:12:00,
2013-02-06 19:17:00,20.7,17.6,30.24,ENE,61,2.0,3.0,88,0.00,,,0.00,0.0,meteohub,2013-02-07 00:17:00,
2013-02-06 19:22:00,20.7,17.6,30.24,NE,51,4.0,4.0,88,0.00,,,0.00,0.0,meteohub,2013-02-07 00:22:00,
2013-02-06 19:27:00,20.7,17.6,30.24,ENE,67,1.0,5.0,88,0.00,,,0.00,0.0,meteohub,2013-02-07 00:27:00,
2013-02-06 19:32:00,20.5,17.4,30.24,NE,34,1.0,5.0,88,0.00,,,0.00,0.0,meteohub,2013-02-07 00:32:00,
2013-02-06 19:37:00,20.5,17.8,30.24,NE,45,1.0,5.0,89,0.00,,,0.00,0.0,meteohub,2013-02-07 00:37:00,
2013-02-06 19:42:00,20.5,17.8,30.24,ENE,66,2.0,3.0,89,0.00,,,0.00,0.0,meteohub,2013-02-07 00:42:00,
2013-02-06 19:47:00,20.5,17.8,30.24,ENE,69,1.0,3.0,89,0.00,,,0.00,0.0,meteohub,2013-02-07 00:47:00,
2013-02-06 19:52:00,20.5,17.8,30.24,East,82,3.0,4.0,89,0.00,,,0.00,0.0,meteohub,2013-02-07 00:52:00,
2013-02-06 19:57:00,20.7,18.0,30.24,East,82,2.0,4.0,89,0.00,,,0.00,0.0,meteohub,2013-02-07 00:57:00,
2013-02-06 20:02:00,20.7,18.0,30.24,East,82,2.0,4.0,89,0.00,,,0.00,0.0,meteohub,2013-02-07 01:02:00,
2013-02-06 20:07:00,20.7,18.0,30.24,East,86,2.0,3.0,89,0.00,,,0.00,0.0,meteohub,2013-02-07 01:07:00,
2013-02-06 20:12:00,20.7,18.0,30.24,NE,56,0.0,3.0,89,0.00,,,0.00,0.0,meteohub,2013-02-07 01:12:00,
2013-02-06 20:17:00,20.7,18.0,30.24,ENE,71,2.0,3.0,89,0.00,,,0.00,0.0,meteohub,2013-02-07 01:17:00,
2013-02-06 20:22:00,20.7,18.0,30.24,East,80,2.0,5.0,89,0.00,,,0.00,0.0,meteohub,2013-02-07 01:22:00,
2013-02-06 20:27:00,20.8,18.3,30.24,East,84,1.0,5.0,90,0.00,,,0.00,0.0,meteohub,2013-02-07 01:27:00,
2013-02-06 20:32:00,20.8,18.3,30.24,East,88,2.0,5.0,90,0.00,,,0.00,0.0,meteohub,2013-02-07 01:32:00,
2013-02-06 20:37:00,20.8,18.3,30.24,East,90,0.0,3.0,90,0.00,,,0.00,0.0,meteohub,2013-02-07 01:37:00,
2013-02-06 20:42:00,20.8,18.7,30.24,East,90,1.0,3.0,91,0.00,,,0.00,0.0,meteohub,2013-02-07 01:42:00,
2013-02-06 20:47:00,20.8,18.7,30.24,East,90,0.0,3.0,91,0.00,,,0.00,0.0,meteohub,2013-02-07 01:47:00,
2013-02-06 20:52:00,20.8,18.7,30.24,East,90,0.0,2.0,91,0.00,,,0.00,0.0,meteohub,2013-02-07 01:52:00,
2013-02-06 20:57:00,20.8,18.9,30.24,East,90,0.0,1.0,92,0.00,,,0.00,0.0,meteohub,2013-02-07 01:57:00,
2013-02-06 21:02:00,20.8,18.9,30.24,East,90,0.0,1.0,92,0.00,,,0.00,0.0,meteohub,2013-02-07 02:02:00,
2013-02-06 21:07:00,20.8,18.9,30.24,SE,130,2.0,2.0,92,0.00,,,0.00,0.0,meteohub,2013-02-07 02:07:00,
2013-02-06 21:12:00,20.8,18.9,30.24,SE,132,0.0,2.0,92,0.00,,,0.00,0.0,meteohub,2013-02-07 02:12:00,
2013-02-06 21:17:00,20.8,18.9,30.25,SE,132,0.0,3.0,92,0.00,,,0.00,0.0,meteohub,2013-02-07 02:17:00,
2013-02-06 21:22:00,20.8,18.9,30.24,ESE,119,1.0,3.0,92,0.00,,,0.00,0.0,meteohub,2013-02-07 02:22:00,
2013-02-06 21:27:00,20.8,18.9,30.24,SE,129,0.0,2.0,92,0.00,,,0.00,0.0,meteohub,2013-02-07 02:27:00,
2013-02-06 21:32:00,20.8,19.2,30.25,South,180,1.0,4.0,93,0.00,,,0.00,0.0,meteohub,2013-02-07 02:32:00,
2013-02-06 21:37:00,20.8,19.2,30.25,ESE,120,0.0,4.0,93,0.00,,,0.00,0.0,meteohub,2013-02-07 02:37:00,
2013-02-06 21:42:00,20.8,18.9,30.25,SE,124,3.0,4.0,92,0.00,,,0.00,0.0,meteohub,2013-02-07 02:42:00,
2013-02-06 21:47:00,20.8,18.9,30.25,SSE,151,1.0,4.0,92,0.00,,,0.00,0.0,meteohub,2013-02-07 02:47:00,
2013-02-06 21:52:00,20.8,19.2,30.25,SE,145,1.0,4.0,93,0.00,,,0.00,0.0,meteohub,2013-02-07 02:52:00,
2013-02-06 21:58:00,20.8,19.2,30.25,SE,143,1.0,4.0,93,0.00,,,0.00,0.0,meteohub,2013-02-07 02:58:00,
2013-02-06 22:03:00,20.8,19.2,30.24,ESE,115,0.0,4.0,93,0.00,,,0.00,0.0,meteohub,2013-02-07 03:03:00,
2013-02-06 22:08:00,20.7,19.0,30.24,SE,145,0.0,3.0,93,0.00,,,0.00,0.0,meteohub,2013-02-07 03:08:00,
2013-02-06 22:13:00,20.7,19.0,30.24,SE,131,1.0,3.0,93,0.00,,,0.00,0.0,meteohub,2013-02-07 03:13:00,
2013-02-06 22:18:00,20.7,19.0,30.24,ESE,102,1.0,8.0,93,0.00,,,0.00,0.0,meteohub,2013-02-07 03:18:00,
2013-02-06 22:23:00,20.7,19.0,30.24,SE,126,1.0,8.0,93,0.00,,,0.00,0.0,meteohub,2013-02-07 03:23:00,
2013-02-06 22:28:00,20.7,19.0,30.24,SSE,150,1.0,8.0,93,0.00,,,0.00,0.0,meteohub,2013-02-07 03:28:00,
2013-02-06 22:33:00,20.7,19.0,30.24,SE,132,1.0,4.0,93,0.00,,,0.00,0.0,meteohub,2013-02-07 03:33:00,
2013-02-06 22:38:00,20.7,19.0,30.24,South,171,3.0,4.0,93,0.00,,,0.00,0.0,meteohub,2013-02-07 03:38:00,
2013-02-06 22:43:00,20.7,19.0,30.24,SSE,166,1.0,7.0,93,0.00,,,0.00,0.0,meteohub,2013-02-07 03:43:00,
2013-02-06 22:48:00,20.7,19.0,30.24,SE,138,1.0,7.0,93,0.00,,,0.00,0.0,meteohub,2013-02-07 03:48:00,
2013-02-06 22:53:00,20.7,19.0,30.24,SE,126,3.0,7.0,93,0.00,,,0.00,0.0,meteohub,2013-02-07 03:53:00,
2013-02-06 22:58:00,20.7,19.0,30.24,SSE,159,2.0,7.0,93,0.00,,,0.00,0.0,meteohub,2013-02-07 03:58:00,
2013-02-06 23:03:00,20.7,19.0,30.24,SSE,156,0.0,7.0,93,0.00,,,0.00,0.0,meteohub,2013-02-07 04:03:00,
2013-02-06 23:08:00,20.7,19.0,30.24,SSE,150,1.0,7.0,93,0.00,,,0.00,0.0,meteohub,2013-02-07 04:08:00,
2013-02-06 23:13:00,20.7,19.0,30.23,SSE,156,2.0,5.0,93,0.00,,,0.00,0.0,meteohub,2013-02-07 04:13:00,
2013-02-06 23:18:00,20.7,19.0,30.24,SSE,160,3.0,6.0,93,0.00,,,0.00,0.0,meteohub,2013-02-07 04:18:00,
2013-02-06 23:23:00,20.7,19.0,30.23,SSE,163,1.0,6.0,93,0.00,,,0.00,0.0,meteohub,2013-02-07 04:23:00,
2013-02-06 23:28:00,20.7,19.0,30.23,SE,144,0.0,6.0,93,0.00,,,0.00,0.0,meteohub,2013-02-07 04:28:00,
2013-02-06 23:33:00,20.7,19.0,30.23,ESE,121,1.0,6.0,93,0.00,,,0.00,0.0,meteohub,2013-02-07 04:33:00,
2013-02-06 23:38:00,20.7,19.0,30.23,SSE,166,2.0,6.0,93,0.00,,,0.00,0.0,meteohub,2013-02-07 04:38:00,
2013-02-06 23:43:00,20.7,19.0,30.23,SSE,167,1.0,6.0,93,0.00,,,0.00,0.0,meteohub,2013-02-07 04:43:00,
2013-02-06 23:48:00,20.7,19.0,30.23,SSE,162,3.0,6.0,93,0.00,,,0.00,0.0,meteohub,2013-02-07 04:48:00,
2013-02-06 23:53:00,20.7,19.0,30.23,SE,143,3.0,6.0,93,0.00,,,0.00,0.0,meteohub,2013-02-07 04:53:00,
2013-02-06 23:58:00,20.7,19.0,30.23,SSE,160,1.0,5.0,93,0.00,,,0.00,0.0,meteohub,2013-02-07 04:58:00,